Time,TemperatureF,DewpointF,PressureIn,WindDirection,WindDirectionDegrees,WindSpeedMPH,WindSpeedGustMPH,Humidity,HourlyPrecipIn,Conditions,Clouds,dailyrainin,SoftwareType,DateUTC
2013-10-14 00:02:00,62.1,55.5,28.11,North,-999,-999.0,-999.0,79,0.00,,,0.00,WSDL version 420,2013-10-14 04:02:00,
2013-10-14 00:07:00,62.1,55.5,28.11,North,-999,-999.0,-999.0,79,0.00,,,0.00,WSDL version 420,2013-10-14 04:07:00,
2013-10-14 00:12:00,62.1,55.5,28.11,North,-999,-999.0,-999.0,79,0.00,,,0.00,WSDL version 420,2013-10-14 04:12:00,
2013-10-14 00:17:00,62.1,55.5,28.11,North,-999,-999.0,-999.0,79,0.00,,,0.00,WSDL version 420,2013-10-14 04:17:00,
2013-10-14 00:22:00,62.1,55.5,28.11,North,-999,-999.0,-999.0,79,0.00,,,0.00,WSDL version 420,2013-10-14 04:22:00,
2013-10-14 00:27:00,61.9,55.3,28.11,North,-999,-999.0,-999.0,79,0.00,,,0.00,WSDL version 420,2013-10-14 04:27:00,
2013-10-14 00:32:00,61.9,55.3,28.11,North,-999,-999.0,-999.0,79,0.00,,,0.00,WSDL version 420,2013-10-14 04:32:00,
2013-10-14 00:37:00,61.9,55.3,28.11,North,-999,-999.0,-999.0,79,0.00,,,0.00,WSDL version 420,2013-10-14 04:37:00,
2013-10-14 00:42:00,61.9,55.3,28.11,North,-999,-999.0,-999.0,79,0.00,,,0.00,WSDL version 420,2013-10-14 04:42:00,
2013-10-14 00:47:00,61.9,55.3,28.11,North,-999,-999.0,-999.0,79,0.00,,,0.00,WSDL version 420,2013-10-14 04:47:00,
2013-10-14 00:52:00,61.9,55.3,28.11,North,-999,-999.0,-999.0,79,0.00,,,0.00,WSDL version 420,2013-10-14 04:52:00,
2013-10-14 00:57:00,61.9,55.3,28.11,SE,135,0.0,0.0,79,0.00,,,0.00,WSDL version 420,2013-10-14 04:57:00,
2013-10-14 01:02:00,61.9,55.3,28.11,SE,135,0.0,0.0,79,0.00,,,0.00,WSDL version 420,2013-10-14 05:02:00,
2013-10-14 01:07:00,61.9,55.3,28.11,SE,135,0.0,0.0,79,0.00,,,0.00,WSDL version 420,2013-10-14 05:07:00,
2013-10-14 01:12:00,61.9,55.3,28.11,North,-999,-999.0,-999.0,79,0.00,,,0.00,WSDL version 420,2013-10-14 05:12:00,
2013-10-14 01:17:00,61.9,55.3,28.11,North,-999,-999.0,-999.0,79,0.00,,,0.00,WSDL version 420,2013-10-14 05:17:00,
2013-10-14 01:22:00,61.9,55.1,28.11,North,-999,-999.0,-999.0,78,0.00,,,0.00,WSDL version 420,2013-10-14 05:22:00,
2013-10-14 01:27:00,61.9,55.0,28.11,North,-999,-999.0,-999.0,78,0.00,,,0.00,WSDL version 420,2013-10-14 05:27:00,
2013-10-14 01:32:00,61.9,55.0,28.11,North,-999,-999.0,-999.0,78,0.00,,,0.00,WSDL version 420,2013-10-14 05:32:00,
2013-10-14 01:37:00,61.9,55.0,28.11,North,-999,-999.0,-999.0,78,0.00,,,0.00,WSDL version 420,2013-10-14 05:37:00,
2013-10-14 01:42:00,61.9,55.0,28.11,North,-999,-999.0,-999.0,78,0.00,,,0.00,WSDL version 420,2013-10-14 05:42:00,
2013-10-14 01:47:00,61.8,54.9,28.11,North,-999,-999.0,-999.0,78,0.00,,,0.00,WSDL version 420,2013-10-14 05:47:00,
2013-10-14 01:52:00,61.8,54.9,28.11,North,-999,-999.0,-999.0,78,0.00,,,0.00,WSDL version 420,2013-10-14 05:52:00,
2013-10-14 01:57:00,61.7,54.8,28.11,North,-999,-999.0,-999.0,78,0.00,,,0.00,WSDL version 420,2013-10-14 05:57:00,
2013-10-14 02:02:00,61.7,54.8,28.11,North,-999,-999.0,-999.0,78,0.00,,,0.00,WSDL version 420,2013-10-14 06:02:00,
2013-10-14 02:07:00,61.7,54.8,28.11,North,-999,-999.0,-999.0,78,0.00,,,0.00,WSDL version 420,2013-10-14 06:07:00,
2013-10-14 02:12:00,61.7,54.8,28.11,North,-999,-999.0,-999.0,78,0.00,,,0.00,WSDL version 420,2013-10-14 06:12:00,
2013-10-14 02:17:00,61.7,54.8,28.11,North,-999,-999.0,-999.0,78,0.00,,,0.00,WSDL version 420,2013-10-14 06:17:00,
2013-10-14 02:22:00,61.6,54.7,28.11,North,-999,-999.0,-999.0,78,0.00,,,0.00,WSDL version 420,2013-10-14 06:22:00,
2013-10-14 02:27:00,61.5,54.6,28.11,NE,45,0.0,0.0,78,0.00,,,0.00,WSDL version 420,2013-10-14 06:27:00,
2013-10-14 02:32:00,61.7,54.6,28.11,NE,45,0.0,0.0,77,0.00,,,0.00,WSDL version 420,2013-10-14 06:32:00,
2013-10-14 02:37:00,61.6,54.4,28.11,NE,45,0.0,0.0,77,0.00,,,0.00,WSDL version 420,2013-10-14 06:37:00,
2013-10-14 02:42:00,61.7,54.4,28.11,North,-999,-999.0,-999.0,77,0.00,,,0.00,WSDL version 420,2013-10-14 06:42:00,
2013-10-14 02:47:00,61.7,54.4,28.11,North,-999,-999.0,-999.0,77,0.00,,,0.00,WSDL version 420,2013-10-14 06:47:00,
2013-10-14 02:52:00,61.7,54.4,28.11,North,-999,-999.0,-999.0,77,0.00,,,0.00,WSDL version 420,2013-10-14 06:52:00,
2013-10-14 02:57:00,61.7,54.1,28.11,North,-999,-999.0,-999.0,76,0.00,,,0.00,WSDL version 420,2013-10-14 06:57:00,
2013-10-14 03:02:00,61.5,53.9,28.11,North,-999,-999.0,-999.0,76,0.00,,,0.00,WSDL version 420,2013-10-14 07:02:00,
2013-10-14 03:07:00,61.5,53.9,28.11,North,-999,-999.0,-999.0,76,0.00,,,0.00,WSDL version 420,2013-10-14 07:07:00,
2013-10-14 03:12:00,61.4,53.8,28.11,North,-999,-999.0,-999.0,76,0.00,,,0.00,WSDL version 420,2013-10-14 07:12:00,
2013-10-14 03:17:00,61.3,53.7,28.11,North,-999,-999.0,-999.0,76,0.00,,,0.00,WSDL version 420,2013-10-14 07:17:00,
2013-10-14 03:22:00,61.2,53.5,28.11,North,-999,-999.0,-999.0,76,0.00,,,0.00,WSDL version 420,2013-10-14 07:22:00,
2013-10-14 03:27:00,61.0,53.4,28.11,North,-999,-999.0,-999.0,76,0.00,,,0.00,WSDL version 420,2013-10-14 07:27:00,
2013-10-14 03:32:00,61.0,53.4,28.11,North,-999,-999.0,-999.0,76,0.00,,,0.00,WSDL version 420,2013-10-14 07:32:00,
2013-10-14 03:37:00,61.0,53.4,28.11,North,-999,-999.0,-999.0,76,0.00,,,0.00,WSDL version 420,2013-10-14 07:37:00,
2013-10-14 03:42:00,60.9,53.3,28.11,North,-999,-999.0,-999.0,76,0.00,,,0.00,WSDL version 420,2013-10-14 07:42:00,
2013-10-14 03:47:00,60.6,53.0,28.11,North,-999,-999.0,-999.0,76,0.00,,,0.00,WSDL version 420,2013-10-14 07:47:00,
2013-10-14 03:52:00,60.4,52.8,28.11,North,-999,-999.0,-999.0,76,0.00,,,0.00,WSDL version 420,2013-10-14 07:52:00,
2013-10-14 03:57:00,60.3,52.7,28.11,North,-999,-999.0,-999.0,76,0.00,,,0.00,WSDL version 420,2013-10-14 07:57:00,
2013-10-14 04:02:00,60.1,52.6,28.11,North,-999,-999.0,-999.0,76,0.00,,,0.00,WSDL version 420,2013-10-14 08:02:00,
2013-10-14 04:07:00,60.0,52.4,28.08,North,-999,-999.0,-999.0,76,0.00,,,0.00,WSDL version 420,2013-10-14 08:07:00,
2013-10-14 04:12:00,59.9,52.3,28.08,North,-999,-999.0,-999.0,76,0.00,,,0.00,WSDL version 420,2013-10-14 08:12:00,
2013-10-14 04:17:00,59.9,52.6,28.08,North,-999,-999.0,-999.0,77,0.00,,,0.00,WSDL version 420,2013-10-14 08:17:00,
2013-10-14 04:22:00,59.8,52.6,28.11,North,-999,-999.0,-999.0,77,0.00,,,0.00,WSDL version 420,2013-10-14 08:22:00,
2013-10-14 04:27:00,59.6,52.4,28.11,North,-999,-999.0,-999.0,77,0.00,,,0.00,WSDL version 420,2013-10-14 08:27:00,
2013-10-14 04:32:00,59.5,52.3,28.11,North,-999,-999.0,-999.0,77,0.00,,,0.00,WSDL version 420,2013-10-14 08:32:00,
2013-10-14 04:37:00,59.5,52.3,28.11,North,-999,-999.0,-999.0,77,0.00,,,0.00,WSDL version 420,2013-10-14 08:37:00,
2013-10-14 04:42:00,59.4,52.2,28.11,North,-999,-999.0,-999.0,77,0.00,,,0.00,WSDL version 420,2013-10-14 08:42:00,
2013-10-14 04:47:00,59.4,52.2,28.11,North,-999,-999.0,-999.0,77,0.00,,,0.00,WSDL version 420,2013-10-14 08:47:00,
2013-10-14 04:52:00,59.2,52.0,28.11,North,-999,-999.0,-999.0,77,0.00,,,0.00,WSDL version 420,2013-10-14 08:52:00,
2013-10-14 04:57:00,58.9,51.7,28.11,North,-999,-999.0,-999.0,77,0.00,,,0.00,WSDL version 420,2013-10-14 08:57:00,
2013-10-14 05:02:00,58.7,51.5,28.11,North,-999,-999.0,-999.0,77,0.00,,,0.00,WSDL version 420,2013-10-14 09:02:00,
2013-10-14 05:07:00,58.6,51.0,28.11,North,-999,-999.0,-999.0,76,0.00,,,0.00,WSDL version 420,2013-10-14 09:07:00,
2013-10-14 05:12:00,58.5,50.9,28.11,North,-999,-999.0,-999.0,76,0.00,,,0.00,WSDL version 420,2013-10-14 09:12:00,
2013-10-14 05:17:00,58.2,50.7,28.11,North,-999,-999.0,-999.0,76,0.00,,,0.00,WSDL version 420,2013-10-14 09:17:00,
2013-10-14 05:22:00,58.0,50.5,28.11,North,-999,-999.0,-999.0,76,0.00,,,0.00,WSDL version 420,2013-10-14 09:22:00,
2013-10-14 05:27:00,57.8,50.3,28.11,North,-999,-999.0,-999.0,76,0.00,,,0.00,WSDL version 420,2013-10-14 09:27:00,
2013-10-14 05:32:00,57.9,50.4,28.11,North,-999,-999.0,-999.0,76,0.00,,,0.00,WSDL version 420,2013-10-14 09:32:00,
2013-10-14 05:37:00,57.9,50.5,28.11,North,-999,-999.0,-999.0,77,0.00,,,0.00,WSDL version 420,2013-10-14 09:37:00,
2013-10-14 05:42:00,57.7,50.4,28.11,North,-999,-999.0,-999.0,76,0.00,,,0.00,WSDL version 420,2013-10-14 09:42:00,
2013-10-14 05:47:00,57.7,50.2,28.11,North,-999,-999.0,-999.0,76,0.00,,,0.00,WSDL version 420,2013-10-14 09:47:00,
2013-10-14 05:52:00,57.9,50.7,28.11,North,-999,-999.0,-999.0,77,0.00,,,0.00,WSDL version 420,2013-10-14 09:52:00,
2013-10-14 05:57:00,58.2,51.2,28.11,North,-999,-999.0,-999.0,78,0.00,,,0.00,WSDL version 420,2013-10-14 09:57:00,
2013-10-14 06:02:00,58.4,51.7,28.11,North,-999,-999.0,-999.0,79,0.00,,,0.00,WSDL version 420,2013-10-14 10:02:00,
2013-10-14 06:07:00,58.6,52.1,28.11,North,-999,-999.0,-999.0,79,0.00,,,0.00,WSDL version 420,2013-10-14 10:07:00,
2013-10-14 06:12:00,58.8,52.3,28.11,North,-999,-999.0,-999.0,79,0.00,,,0.00,WSDL version 420,2013-10-14 10:12:00,
2013-10-14 06:17:00,58.8,52.3,28.11,North,-999,-999.0,-999.0,79,0.00,,,0.00,WSDL version 420,2013-10-14 10:17:00,
2013-10-14 06:22:00,58.8,52.3,28.11,North,-999,-999.0,-999.0,79,0.00,,,0.00,WSDL version 420,2013-10-14 10:22:00,
2013-10-14 06:27:00,58.8,52.3,28.11,North,-999,-999.0,-999.0,79,0.00,,,0.00,WSDL version 420,2013-10-14 10:27:00,
2013-10-14 06:32:00,58.7,52.2,28.11,North,-999,-999.0,-999.0,79,0.00,,,0.00,WSDL version 420,2013-10-14 10:32:00,
2013-10-14 06:37:00,58.6,52.2,28.11,North,-999,-999.0,-999.0,79,0.00,,,0.00,WSDL version 420,2013-10-14 10:37:00,
2013-10-14 06:42:00,58.6,52.2,28.11,North,-999,-999.0,-999.0,79,0.00,,,0.00,WSDL version 420,2013-10-14 10:42:00,
2013-10-14 06:47:00,58.6,52.2,28.11,North,-999,-999.0,-999.0,79,0.00,,,0.00,WSDL version 420,2013-10-14 10:47:00,
2013-10-14 06:52:00,58.6,52.2,28.11,North,-999,-999.0,-999.0,79,0.00,,,0.00,WSDL version 420,2013-10-14 10:52:00,
2013-10-14 06:57:00,58.6,52.2,28.11,North,-999,-999.0,-999.0,79,0.00,,,0.00,WSDL version 420,2013-10-14 10:57:00,
2013-10-14 07:02:00,58.5,52.0,28.11,North,-999,-999.0,-999.0,79,0.00,,,0.00,WSDL version 420,2013-10-14 11:02:00,
2013-10-14 07:07:00,58.5,52.0,28.11,North,-999,-999.0,-999.0,79,0.00,,,0.00,WSDL version 420,2013-10-14 11:07:00,
2013-10-14 07:12:00,58.5,52.0,28.11,North,-999,-999.0,-999.0,79,0.00,,,0.00,WSDL version 420,2013-10-14 11:12:00,
2013-10-14 07:17:00,58.3,51.9,28.11,North,-999,-999.0,-999.0,79,0.00,,,0.00,WSDL version 420,2013-10-14 11:17:00,
2013-10-14 07:22:00,58.3,51.8,28.11,North,-999,-999.0,-999.0,79,0.00,,,0.00,WSDL version 420,2013-10-14 11:22:00,
2013-10-14 07:27:00,58.3,51.8,28.11,North,-999,-999.0,-999.0,79,0.00,,,0.00,WSDL version 420,2013-10-14 11:27:00,
2013-10-14 07:32:00,58.3,51.8,28.11,North,-999,-999.0,-999.0,79,0.00,,,0.00,WSDL version 420,2013-10-14 11:32:00,
2013-10-14 07:37:00,58.2,52.0,28.11,North,-999,-999.0,-999.0,80,0.00,,,0.00,WSDL version 420,2013-10-14 11:37:00,
2013-10-14 07:42:00,58.1,51.9,28.11,North,-999,-999.0,-999.0,79,0.00,,,0.00,WSDL version 420,2013-10-14 11:42:00,
2013-10-14 07:47:00,57.9,51.5,28.11,North,-999,-999.0,-999.0,79,0.00,,,0.00,WSDL version 420,2013-10-14 11:47:00,
2013-10-14 07:52:00,57.9,51.5,28.11,North,-999,-999.0,-999.0,79,0.00,,,0.00,WSDL version 420,2013-10-14 11:52:00,
2013-10-14 07:57:00,57.9,51.5,28.11,North,-999,-999.0,-999.0,79,0.00,,,0.00,WSDL version 420,2013-10-14 11:57:00,
2013-10-14 08:02:00,57.9,51.5,28.11,North,-999,-999.0,-999.0,79,0.00,,,0.00,WSDL version 420,2013-10-14 12:02:00,
2013-10-14 08:07:00,57.9,51.5,28.11,North,-999,-999.0,-999.0,79,0.00,,,0.00,WSDL version 420,2013-10-14 12:07:00,
2013-10-14 08:12:00,57.9,51.5,28.11,North,-999,-999.0,-999.0,79,0.00,,,0.00,WSDL version 420,2013-10-14 12:12:00,
2013-10-14 08:17:00,57.9,51.5,28.11,North,-999,-999.0,-999.0,79,0.00,,,0.00,WSDL version 420,2013-10-14 12:17:00,
2013-10-14 08:22:00,57.9,51.5,28.14,North,-999,-999.0,-999.0,79,0.00,,,0.00,WSDL version 420,2013-10-14 12:22:00,
2013-10-14 08:27:00,57.7,51.3,28.14,North,-999,-999.0,-999.0,79,0.00,,,0.00,WSDL version 420,2013-10-14 12:27:00,
2013-10-14 08:32:00,58.0,51.6,28.14,North,-999,-999.0,-999.0,80,0.00,,,0.00,WSDL version 420,2013-10-14 12:32:00,
2013-10-14 08:37:00,58.3,52.1,28.14,North,-999,-999.0,-999.0,80,0.00,,,0.00,WSDL version 420,2013-10-14 12:37:00,
2013-10-14 08:42:00,58.9,52.7,28.14,North,-999,-999.0,-999.0,80,0.00,,,0.00,WSDL version 420,2013-10-14 12:42:00,
2013-10-14 08:47:00,59.1,52.9,28.14,North,-999,-999.0,-999.0,80,0.00,,,0.00,WSDL version 420,2013-10-14 12:47:00,
2013-10-14 08:52:00,59.5,53.3,28.14,North,-999,-999.0,-999.0,80,0.00,,,0.00,WSDL version 420,2013-10-14 12:52:00,
2013-10-14 08:57:00,59.9,53.7,28.14,North,-999,-999.0,-999.0,80,0.00,,,0.00,WSDL version 420,2013-10-14 12:57:00,
2013-10-14 09:02:00,60.0,53.8,28.14,North,-999,-999.0,-999.0,80,0.00,,,0.00,WSDL version 420,2013-10-14 13:02:00,
2013-10-14 09:07:00,60.6,54.3,28.14,North,-999,-999.0,-999.0,79,0.00,,,0.00,WSDL version 420,2013-10-14 13:07:00,
2013-10-14 09:12:00,60.9,54.3,28.14,North,-999,-999.0,-999.0,79,0.00,,,0.00,WSDL version 420,2013-10-14 13:12:00,
2013-10-14 09:17:00,61.2,54.7,28.14,North,-999,-999.0,-999.0,79,0.00,,,0.00,WSDL version 420,2013-10-14 13:17:00,
2013-10-14 09:22:00,61.6,54.7,28.14,North,-999,-999.0,-999.0,78,0.00,,,0.00,WSDL version 420,2013-10-14 13:22:00,
2013-10-14 09:27:00,61.9,54.8,28.14,North,-999,-999.0,-999.0,77,0.00,,,0.00,WSDL version 420,2013-10-14 13:27:00,
2013-10-14 09:32:00,62.4,55.1,28.14,North,-999,-999.0,-999.0,77,0.00,,,0.00,WSDL version 420,2013-10-14 13:32:00,
2013-10-14 09:37:00,62.7,55.1,28.14,North,-999,-999.0,-999.0,76,0.00,,,0.00,WSDL version 420,2013-10-14 13:37:00,
2013-10-14 09:42:00,63.1,55.3,28.14,North,-999,-999.0,-999.0,75,0.00,,,0.00,WSDL version 420,2013-10-14 13:42:00,
2013-10-14 09:47:00,62.8,54.8,28.14,North,-999,-999.0,-999.0,75,0.00,,,0.00,WSDL version 420,2013-10-14 13:47:00,
2013-10-14 09:52:00,62.5,54.3,28.14,North,-999,-999.0,-999.0,75,0.00,,,0.00,WSDL version 420,2013-10-14 13:52:00,
2013-10-14 09:57:00,62.4,54.0,28.14,North,-999,-999.0,-999.0,74,0.00,,,0.00,WSDL version 420,2013-10-14 13:57:00,
2013-10-14 10:02:00,62.7,54.3,28.14,North,-999,-999.0,-999.0,74,0.00,,,0.00,WSDL version 420,2013-10-14 14:02:00,
2013-10-14 10:07:00,63.3,54.6,28.14,North,-999,-999.0,-999.0,73,0.00,,,0.00,WSDL version 420,2013-10-14 14:07:00,
2013-10-14 10:12:00,63.0,54.2,28.14,North,-999,-999.0,-999.0,73,0.00,,,0.00,WSDL version 420,2013-10-14 14:12:00,
2013-10-14 10:17:00,63.0,54.1,28.14,North,-999,-999.0,-999.0,73,0.00,,,0.00,WSDL version 420,2013-10-14 14:17:00,
2013-10-14 10:22:00,63.0,54.0,28.14,North,-999,-999.0,-999.0,73,0.00,,,0.00,WSDL version 420,2013-10-14 14:22:00,
2013-10-14 10:27:00,63.0,54.2,28.14,North,-999,-999.0,-999.0,73,0.00,,,0.00,WSDL version 420,2013-10-14 14:27:00,
2013-10-14 10:32:00,63.1,54.4,28.14,North,-999,-999.0,-999.0,73,0.00,,,0.00,WSDL version 420,2013-10-14 14:32:00,
2013-10-14 10:37:00,63.3,54.5,28.14,North,-999,-999.0,-999.0,73,0.00,,,0.00,WSDL version 420,2013-10-14 14:37:00,
2013-10-14 10:42:00,63.6,54.8,28.14,North,-999,-999.0,-999.0,73,0.00,,,0.00,WSDL version 420,2013-10-14 14:42:00,
2013-10-14 10:47:00,63.7,54.7,28.14,North,-999,-999.0,-999.0,72,0.00,,,0.00,WSDL version 420,2013-10-14 14:47:00,
2013-10-14 10:52:00,63.7,54.6,28.14,North,-999,-999.0,-999.0,72,0.00,,,0.00,WSDL version 420,2013-10-14 14:52:00,
2013-10-14 10:57:00,63.7,54.5,28.14,North,-999,-999.0,-999.0,72,0.00,,,0.00,WSDL version 420,2013-10-14 14:57:00,
2013-10-14 11:02:00,64.0,54.8,28.14,North,-999,-999.0,-999.0,72,0.00,,,0.00,WSDL version 420,2013-10-14 15:02:00,
2013-10-14 11:07:00,64.3,54.9,28.14,North,-999,-999.0,-999.0,71,0.00,,,0.00,WSDL version 420,2013-10-14 15:07:00,
2013-10-14 11:12:00,64.4,54.8,28.14,North,-999,-999.0,-999.0,71,0.00,,,0.00,WSDL version 420,2013-10-14 15:12:00,
2013-10-14 11:17:00,64.5,54.9,28.14,North,-999,-999.0,-999.0,71,0.00,,,0.00,WSDL version 420,2013-10-14 15:17:00,
2013-10-14 11:22:00,64.4,54.8,28.14,North,-999,-999.0,-999.0,71,0.00,,,0.00,WSDL version 420,2013-10-14 15:22:00,
2013-10-14 11:27:00,64.6,54.8,28.14,North,-999,-999.0,-999.0,70,0.00,,,0.00,WSDL version 420,2013-10-14 15:27:00,
2013-10-14 11:32:00,64.8,54.8,28.14,North,-999,-999.0,-999.0,70,0.00,,,0.00,WSDL version 420,2013-10-14 15:32:00,
2013-10-14 11:37:00,64.8,54.8,28.14,North,-999,-999.0,-999.0,70,0.00,,,0.00,WSDL version 420,2013-10-14 15:37:00,
2013-10-14 11:42:00,65.0,55.0,28.14,North,-999,-999.0,-999.0,70,0.00,,,0.00,WSDL version 420,2013-10-14 15:42:00,
2013-10-14 11:47:00,65.0,55.0,28.14,North,-999,-999.0,-999.0,70,0.00,,,0.00,WSDL version 420,2013-10-14 15:47:00,
2013-10-14 11:52:00,65.0,55.0,28.14,North,-999,-999.0,-999.0,70,0.00,,,0.00,WSDL version 420,2013-10-14 15:52:00,
2013-10-14 11:57:00,65.2,55.2,28.14,North,-999,-999.0,-999.0,70,0.00,,,0.00,WSDL version 420,2013-10-14 15:57:00,
2013-10-14 12:02:00,65.4,55.4,28.14,North,-999,-999.0,-999.0,70,0.00,,,0.00,WSDL version 420,2013-10-14 16:02:00,
2013-10-14 12:07:00,65.6,55.6,28.14,North,-999,-999.0,-999.0,70,0.00,,,0.00,WSDL version 420,2013-10-14 16:07:00,
2013-10-14 12:12:00,65.7,55.4,28.14,North,-999,-999.0,-999.0,69,0.00,,,0.00,WSDL version 420,2013-10-14 16:12:00,
2013-10-14 12:17:00,65.9,55.5,28.14,North,-999,-999.0,-999.0,69,0.00,,,0.00,WSDL version 420,2013-10-14 16:17:00,
2013-10-14 12:22:00,66.0,55.5,28.14,North,-999,-999.0,-999.0,69,0.00,,,0.00,WSDL version 420,2013-10-14 16:22:00,
2013-10-14 12:27:00,66.1,55.5,28.14,North,-999,-999.0,-999.0,69,0.00,,,0.00,WSDL version 420,2013-10-14 16:27:00,
2013-10-14 12:32:00,66.2,55.3,28.14,North,-999,-999.0,-999.0,68,0.00,,,0.00,WSDL version 420,2013-10-14 16:32:00,
2013-10-14 12:37:00,66.3,55.4,28.11,North,-999,-999.0,-999.0,68,0.00,,,0.00,WSDL version 420,2013-10-14 16:37:00,
2013-10-14 12:42:00,66.4,55.4,28.11,North,-999,-999.0,-999.0,67,0.00,,,0.00,WSDL version 420,2013-10-14 16:42:00,
2013-10-14 12:47:00,66.5,55.2,28.11,North,-999,-999.0,-999.0,67,0.00,,,0.00,WSDL version 420,2013-10-14 16:47:00,
2013-10-14 12:52:00,66.9,55.6,28.11,North,-999,-999.0,-999.0,67,0.00,,,0.00,WSDL version 420,2013-10-14 16:52:00,
2013-10-14 12:57:00,67.5,56.1,28.11,North,-999,-999.0,-999.0,67,0.00,,,0.00,WSDL version 420,2013-10-14 16:57:00,
2013-10-14 13:02:00,67.8,56.2,28.11,North,-999,-999.0,-999.0,66,0.00,,,0.00,WSDL version 420,2013-10-14 17:02:00,
2013-10-14 13:07:00,68.1,55.9,28.11,North,-999,-999.0,-999.0,65,0.00,,,0.00,WSDL version 420,2013-10-14 17:07:00,
2013-10-14 13:12:00,68.4,56.2,28.11,North,-999,-999.0,-999.0,65,0.00,,,0.00,WSDL version 420,2013-10-14 17:12:00,
2013-10-14 13:17:00,68.5,56.2,28.11,North,-999,-999.0,-999.0,65,0.00,,,0.00,WSDL version 420,2013-10-14 17:17:00,
2013-10-14 13:22:00,68.5,56.3,28.11,North,-999,-999.0,-999.0,65,0.00,,,0.00,WSDL version 420,2013-10-14 17:22:00,
2013-10-14 13:27:00,69.0,56.3,28.11,North,-999,-999.0,-999.0,64,0.00,,,0.00,WSDL version 420,2013-10-14 17:27:00,
2013-10-14 13:32:00,69.0,55.9,28.11,North,-999,-999.0,-999.0,63,0.00,,,0.00,WSDL version 420,2013-10-14 17:32:00,
2013-10-14 13:37:00,69.2,56.1,28.11,North,-999,-999.0,-999.0,63,0.00,,,0.00,WSDL version 420,2013-10-14 17:37:00,
2013-10-14 13:42:00,69.3,56.2,28.11,North,-999,-999.0,-999.0,63,0.00,,,0.00,WSDL version 420,2013-10-14 17:42:00,
2013-10-14 13:47:00,69.3,55.9,28.11,North,-999,-999.0,-999.0,62,0.00,,,0.00,WSDL version 420,2013-10-14 17:47:00,
2013-10-14 13:52:00,69.6,56.0,28.08,North,-999,-999.0,-999.0,62,0.00,,,0.00,WSDL version 420,2013-10-14 17:52:00,
2013-10-14 13:57:00,70.1,56.0,28.08,North,-999,-999.0,-999.0,61,0.00,,,0.00,WSDL version 420,2013-10-14 17:57:00,
2013-10-14 14:02:00,70.9,56.7,28.08,North,-999,-999.0,-999.0,61,0.00,,,0.00,WSDL version 420,2013-10-14 18:02:00,
2013-10-14 14:07:00,71.4,56.6,28.08,North,-999,-999.0,-999.0,59,0.00,,,0.00,WSDL version 420,2013-10-14 18:07:00,
2013-10-14 14:12:00,71.4,56.2,28.08,North,-999,-999.0,-999.0,58,0.00,,,0.00,WSDL version 420,2013-10-14 18:12:00,
2013-10-14 14:17:00,71.6,56.1,28.08,North,-999,-999.0,-999.0,58,0.00,,,0.00,WSDL version 420,2013-10-14 18:17:00,
2013-10-14 14:22:00,71.9,56.0,28.08,North,-999,-999.0,-999.0,57,0.00,,,0.00,WSDL version 420,2013-10-14 18:22:00,
2013-10-14 14:27:00,72.1,55.6,28.08,North,-999,-999.0,-999.0,56,0.00,,,0.00,WSDL version 420,2013-10-14 18:27:00,
2013-10-14 14:32:00,72.4,55.7,28.08,North,-999,-999.0,-999.0,55,0.00,,,0.00,WSDL version 420,2013-10-14 18:32:00,
2013-10-14 14:37:00,72.7,56.0,28.05,North,-999,-999.0,-999.0,55,0.00,,,0.00,WSDL version 420,2013-10-14 18:37:00,
2013-10-14 14:42:00,72.7,56.0,28.05,North,-999,-999.0,-999.0,56,0.00,,,0.00,WSDL version 420,2013-10-14 18:42:00,
2013-10-14 14:47:00,73.3,55.9,28.05,North,-999,-999.0,-999.0,54,0.00,,,0.00,WSDL version 420,2013-10-14 18:47:00,
2013-10-14 14:52:00,73.7,55.7,28.05,North,-999,-999.0,-999.0,53,0.00,,,0.00,WSDL version 420,2013-10-14 18:52:00,
2013-10-14 14:57:00,73.1,55.0,28.05,North,-999,-999.0,-999.0,53,0.00,,,0.00,WSDL version 420,2013-10-14 18:57:00,
2013-10-14 15:02:00,71.4,53.5,28.05,North,-999,-999.0,-999.0,54,0.00,,,0.00,WSDL version 420,2013-10-14 19:02:00,
2013-10-14 15:07:00,70.6,53.2,28.05,North,-999,-999.0,-999.0,54,0.00,,,0.00,WSDL version 420,2013-10-14 19:07:00,
2013-10-14 15:12:00,71.1,53.6,28.05,North,-999,-999.0,-999.0,54,0.00,,,0.00,WSDL version 420,2013-10-14 19:12:00,
2013-10-14 15:17:00,72.3,54.4,28.05,North,-999,-999.0,-999.0,53,0.00,,,0.00,WSDL version 420,2013-10-14 19:17:00,
2013-10-14 15:22:00,73.0,54.7,28.05,North,-999,-999.0,-999.0,53,0.00,,,0.00,WSDL version 420,2013-10-14 19:22:00,
2013-10-14 15:27:00,72.0,53.8,28.05,North,-999,-999.0,-999.0,53,0.00,,,0.00,WSDL version 420,2013-10-14 19:27:00,
2013-10-14 15:32:00,70.8,52.9,28.05,North,-999,-999.0,-999.0,53,0.00,,,0.00,WSDL version 420,2013-10-14 19:32:00,
2013-10-14 15:37:00,70.7,52.6,28.05,North,-999,-999.0,-999.0,52,0.00,,,0.00,WSDL version 420,2013-10-14 19:37:00,
2013-10-14 15:42:00,71.2,53.2,28.05,North,-999,-999.0,-999.0,53,0.00,,,0.00,WSDL version 420,2013-10-14 19:42:00,
2013-10-14 15:47:00,72.0,53.8,28.05,North,-999,-999.0,-999.0,52,0.00,,,0.00,WSDL version 420,2013-10-14 19:47:00,
2013-10-14 15:52:00,71.7,53.2,28.05,North,-999,-999.0,-999.0,52,0.00,,,0.00,WSDL version 420,2013-10-14 19:52:00,
2013-10-14 15:57:00,71.6,53.1,28.05,North,-999,-999.0,-999.0,52,0.00,,,0.00,WSDL version 420,2013-10-14 19:57:00,
2013-10-14 16:02:00,70.8,52.3,28.05,North,-999,-999.0,-999.0,52,0.00,,,0.00,WSDL version 420,2013-10-14 20:02:00,
2013-10-14 16:07:00,71.3,52.8,28.05,North,-999,-999.0,-999.0,52,0.00,,,0.00,WSDL version 420,2013-10-14 20:07:00,
2013-10-14 16:12:00,72.3,53.5,28.05,North,-999,-999.0,-999.0,51,0.00,,,0.00,WSDL version 420,2013-10-14 20:12:00,
2013-10-14 16:17:00,72.8,53.5,28.05,North,-999,-999.0,-999.0,50,0.00,,,0.00,WSDL version 420,2013-10-14 20:17:00,
2013-10-14 16:22:00,72.9,53.5,28.02,North,-999,-999.0,-999.0,50,0.00,,,0.00,WSDL version 420,2013-10-14 20:22:00,
2013-10-14 16:27:00,72.0,52.7,28.02,North,-999,-999.0,-999.0,51,0.00,,,0.00,WSDL version 420,2013-10-14 20:27:00,
2013-10-14 16:32:00,70.9,51.9,28.02,North,-999,-999.0,-999.0,51,0.00,,,0.00,WSDL version 420,2013-10-14 20:32:00,
2013-10-14 16:37:00,71.4,52.3,28.02,North,-999,-999.0,-999.0,51,0.00,,,0.00,WSDL version 420,2013-10-14 20:37:00,
2013-10-14 16:42:00,72.1,53.0,28.02,North,-999,-999.0,-999.0,51,0.00,,,0.00,WSDL version 420,2013-10-14 20:42:00,
2013-10-14 16:47:00,71.4,52.4,28.02,North,-999,-999.0,-999.0,51,0.00,,,0.00,WSDL version 420,2013-10-14 20:47:00,
2013-10-14 16:52:00,71.8,52.2,28.05,North,-999,-999.0,-999.0,50,0.00,,,0.00,WSDL version 420,2013-10-14 20:52:00,
2013-10-14 16:57:00,71.7,52.1,28.05,North,-999,-999.0,-999.0,50,0.00,,,0.00,WSDL version 420,2013-10-14 20:57:00,
2013-10-14 17:02:00,71.1,51.7,28.05,North,-999,-999.0,-999.0,51,0.00,,,0.00,WSDL version 420,2013-10-14 21:02:00,
2013-10-14 17:07:00,70.6,51.4,28.02,North,-999,-999.0,-999.0,50,0.00,,,0.00,WSDL version 420,2013-10-14 21:07:00,
2013-10-14 17:12:00,70.3,51.4,28.02,North,-999,-999.0,-999.0,51,0.00,,,0.00,WSDL version 420,2013-10-14 21:12:00,
2013-10-14 17:17:00,70.2,51.3,28.02,North,-999,-999.0,-999.0,51,0.00,,,0.00,WSDL version 420,2013-10-14 21:17:00,
2013-10-14 17:22:00,70.4,51.4,28.02,West,270,1.3,1.6,51,0.00,,,0.00,WSDL version 420,2013-10-14 21:22:00,
2013-10-14 17:27:00,70.7,51.7,28.02,West,270,1.3,1.6,51,0.00,,,0.00,WSDL version 420,2013-10-14 21:27:00,
2013-10-14 17:32:00,70.9,51.8,28.02,West,270,1.3,1.3,50,0.00,,,0.00,WSDL version 420,2013-10-14 21:32:00,
2013-10-14 17:37:00,71.0,51.7,28.05,North,-999,-999.0,-999.0,50,0.00,,,0.00,WSDL version 420,2013-10-14 21:37:00,
2013-10-14 17:42:00,70.9,51.6,28.05,North,-999,-999.0,-999.0,51,0.00,,,0.00,WSDL version 420,2013-10-14 21:42:00,
2013-10-14 17:47:00,70.6,51.7,28.05,North,-999,-999.0,-999.0,51,0.00,,,0.00,WSDL version 420,2013-10-14 21:47:00,
2013-10-14 17:52:00,70.5,51.5,28.05,North,-999,-999.0,-999.0,51,0.00,,,0.00,WSDL version 420,2013-10-14 21:52:00,
2013-10-14 17:57:00,70.2,51.4,28.05,North,-999,-999.0,-999.0,52,0.00,,,0.00,WSDL version 420,2013-10-14 21:57:00,
2013-10-14 18:02:00,69.8,51.4,28.05,North,-999,-999.0,-999.0,52,0.00,,,0.00,WSDL version 420,2013-10-14 22:02:00,
2013-10-14 18:07:00,69.3,51.4,28.05,North,-999,-999.0,-999.0,53,0.00,,,0.00,WSDL version 420,2013-10-14 22:07:00,
2013-10-14 18:12:00,69.0,51.2,28.05,North,-999,-999.0,-999.0,53,0.00,,,0.00,WSDL version 420,2013-10-14 22:12:00,
2013-10-14 18:17:00,68.8,51.2,28.05,North,-999,-999.0,-999.0,54,0.00,,,0.00,WSDL version 420,2013-10-14 22:17:00,
2013-10-14 18:22:00,68.6,51.3,28.05,North,-999,-999.0,-999.0,54,0.00,,,0.00,WSDL version 420,2013-10-14 22:22:00,
2013-10-14 18:27:00,68.2,51.3,28.05,North,-999,-999.0,-999.0,55,0.00,,,0.00,WSDL version 420,2013-10-14 22:27:00,
2013-10-14 18:32:00,67.9,51.2,28.05,East,90,0.0,0.0,55,0.00,,,0.00,WSDL version 420,2013-10-14 22:32:00,
2013-10-14 18:37:00,67.8,51.2,28.05,East,90,0.0,0.0,56,0.00,,,0.00,WSDL version 420,2013-10-14 22:37:00,
2013-10-14 18:42:00,67.6,51.3,28.05,East,90,0.0,0.0,56,0.00,,,0.00,WSDL version 420,2013-10-14 22:42:00,
2013-10-14 18:47:00,67.3,51.1,28.05,North,-999,-999.0,-999.0,56,0.00,,,0.00,WSDL version 420,2013-10-14 22:47:00,
2013-10-14 18:52:00,67.2,51.0,28.05,North,-999,-999.0,-999.0,56,0.00,,,0.00,WSDL version 420,2013-10-14 22:52:00,
2013-10-14 18:57:00,67.0,51.0,28.05,North,-999,-999.0,-999.0,57,0.00,,,0.00,WSDL version 420,2013-10-14 22:57:00,
2013-10-14 19:02:00,66.9,51.2,28.05,North,-999,-999.0,-999.0,57,0.00,,,0.00,WSDL version 420,2013-10-14 23:02:00,
2013-10-14 19:07:00,66.7,51.0,28.05,North,-999,-999.0,-999.0,57,0.00,,,0.00,WSDL version 420,2013-10-14 23:07:00,
2013-10-14 19:12:00,66.6,50.9,28.05,North,-999,-999.0,-999.0,57,0.00,,,0.00,WSDL version 420,2013-10-14 23:12:00,
2013-10-14 19:17:00,66.4,50.8,28.05,North,-999,-999.0,-999.0,57,0.00,,,0.00,WSDL version 420,2013-10-14 23:17:00,
2013-10-14 19:22:00,66.3,50.9,28.08,North,-999,-999.0,-999.0,58,0.00,,,0.00,WSDL version 420,2013-10-14 23:22:00,
2013-10-14 19:27:00,66.2,51.0,28.08,North,-999,-999.0,-999.0,58,0.00,,,0.00,WSDL version 420,2013-10-14 23:27:00,
2013-10-14 19:32:00,66.0,50.8,28.08,North,-999,-999.0,-999.0,58,0.00,,,0.00,WSDL version 420,2013-10-14 23:32:00,
2013-10-14 19:37:00,66.0,50.8,28.05,North,-999,-999.0,-999.0,58,0.00,,,0.00,WSDL version 420,2013-10-14 23:37:00,
2013-10-14 19:42:00,65.8,51.1,28.05,North,-999,-999.0,-999.0,59,0.00,,,0.00,WSDL version 420,2013-10-14 23:42:00,
2013-10-14 19:47:00,65.7,51.0,28.05,North,-999,-999.0,-999.0,59,0.00,,,0.00,WSDL version 420,2013-10-14 23:47:00,
2013-10-14 19:52:00,65.6,50.9,28.08,North,-999,-999.0,-999.0,59,0.00,,,0.00,WSDL version 420,2013-10-14 23:52:00,
2013-10-14 19:57:00,65.5,50.8,28.08,North,-999,-999.0,-999.0,59,0.00,,,0.00,WSDL version 420,2013-10-14 23:57:00,
2013-10-14 20:02:00,65.4,50.7,28.08,North,-999,-999.0,-999.0,59,0.00,,,0.00,WSDL version 420,2013-10-15 00:02:00,
2013-10-14 20:07:00,65.1,50.5,28.08,SSW,203,1.1,1.1,59,0.00,,,0.00,WSDL version 420,2013-10-15 00:07:00,
2013-10-14 20:12:00,65.0,50.6,28.08,SSW,203,1.1,1.1,60,0.00,,,0.00,WSDL version 420,2013-10-15 00:12:00,
2013-10-14 20:17:00,65.0,50.8,28.08,SSW,203,1.1,1.1,60,0.00,,,0.00,WSDL version 420,2013-10-15 00:17:00,
2013-10-14 20:22:00,64.8,50.6,28.08,North,-999,-999.0,-999.0,60,0.00,,,0.00,WSDL version 420,2013-10-15 00:22:00,
2013-10-14 20:27:00,64.6,50.5,28.08,North,-999,-999.0,-999.0,60,0.00,,,0.00,WSDL version 420,2013-10-15 00:27:00,
2013-10-14 20:32:00,64.5,50.5,28.08,North,-999,-999.0,-999.0,61,0.00,,,0.00,WSDL version 420,2013-10-15 00:32:00,
2013-10-14 20:37:00,64.4,50.7,28.08,North,-999,-999.0,-999.0,61,0.00,,,0.00,WSDL version 420,2013-10-15 00:37:00,
2013-10-14 20:42:00,64.4,50.7,28.08,North,-999,-999.0,-999.0,61,0.00,,,0.00,WSDL version 420,2013-10-15 00:42:00,
2013-10-14 20:47:00,64.4,50.7,28.08,North,-999,-999.0,-999.0,61,0.00,,,0.00,WSDL version 420,2013-10-15 00:47:00,
2013-10-14 20:52:00,64.2,50.5,28.08,North,-999,-999.0,-999.0,61,0.00,,,0.00,WSDL version 420,2013-10-15 00:52:00,
2013-10-14 20:57:00,64.2,50.9,28.08,North,-999,-999.0,-999.0,62,0.00,,,0.00,WSDL version 420,2013-10-15 00:57:00,
2013-10-14 21:02:00,64.0,50.8,28.08,North,-999,-999.0,-999.0,62,0.00,,,0.00,WSDL version 420,2013-10-15 01:02:00,
2013-10-14 21:07:00,64.0,50.7,28.08,North,-999,-999.0,-999.0,62,0.00,,,0.00,WSDL version 420,2013-10-15 01:07:00,
2013-10-14 21:12:00,63.8,50.5,28.08,North,-999,-999.0,-999.0,62,0.00,,,0.00,WSDL version 420,2013-10-15 01:12:00,
2013-10-14 21:17:00,63.6,50.3,28.08,WSW,248,0.0,0.0,62,0.00,,,0.00,WSDL version 420,2013-10-15 01:17:00,
2013-10-14 21:22:00,63.3,50.0,28.08,WSW,248,0.0,0.0,62,0.00,,,0.00,WSDL version 420,2013-10-15 01:22:00,
2013-10-14 21:27:00,63.1,49.9,28.08,WSW,248,0.0,0.0,62,0.00,,,0.00,WSDL version 420,2013-10-15 01:27:00,
2013-10-14 21:32:00,62.9,49.7,28.08,WSW,248,0.0,0.0,62,0.00,,,0.00,WSDL version 420,2013-10-15 01:32:00,
2013-10-14 21:37:00,62.8,49.6,28.08,WSW,248,0.0,0.0,62,0.00,,,0.00,WSDL version 420,2013-10-15 01:37:00,
2013-10-14 21:42:00,62.7,49.6,28.08,WSW,248,0.0,0.0,63,0.00,,,0.00,WSDL version 420,2013-10-15 01:42:00,
2013-10-14 21:47:00,62.6,49.8,28.08,WSW,248,0.0,0.0,63,0.00,,,0.00,WSDL version 420,2013-10-15 01:47:00,
2013-10-14 21:52:00,62.6,49.8,28.08,WSW,248,0.0,0.0,63,0.00,,,0.00,WSDL version 420,2013-10-15 01:52:00,
2013-10-14 21:57:00,62.7,49.9,28.08,WSW,248,0.0,0.0,63,0.00,,,0.00,WSDL version 420,2013-10-15 01:57:00,
2013-10-14 22:02:00,62.8,50.0,28.08,WSW,248,0.0,0.0,63,0.00,,,0.00,WSDL version 420,2013-10-15 02:02:00,
2013-10-14 22:07:00,62.8,50.0,28.08,WSW,248,0.0,0.0,63,0.00,,,0.00,WSDL version 420,2013-10-15 02:07:00,
2013-10-14 22:12:00,62.7,49.9,28.08,WNW,293,0.0,0.0,63,0.00,,,0.00,WSDL version 420,2013-10-15 02:12:00,
2013-10-14 22:17:00,62.6,49.8,28.08,WNW,293,0.0,0.0,63,0.00,,,0.00,WSDL version 420,2013-10-15 02:17:00,
2013-10-14 22:22:00,62.4,50.1,28.08,WNW,293,0.0,0.0,64,0.00,,,0.00,WSDL version 420,2013-10-15 02:22:00,
2013-10-14 22:27:00,62.4,50.1,28.08,NW,315,0.0,0.0,64,0.00,,,0.00,WSDL version 420,2013-10-15 02:27:00,
2013-10-14 22:32:00,62.2,50.3,28.08,NW,315,0.0,0.0,65,0.00,,,0.00,WSDL version 420,2013-10-15 02:32:00,
2013-10-14 22:37:00,62.2,50.3,28.08,NW,315,0.0,0.0,65,0.00,,,0.00,WSDL version 420,2013-10-15 02:37:00,
2013-10-14 22:42:00,62.0,50.1,28.08,NNE,23,0.0,0.0,65,0.00,,,0.00,WSDL version 420,2013-10-15 02:42:00,
2013-10-14 22:47:00,61.8,50.2,28.08,West,278,0.0,0.0,66,0.00,,,0.00,WSDL version 420,2013-10-15 02:47:00,
2013-10-14 22:52:00,61.7,50.2,28.08,NNW,338,0.0,0.0,66,0.00,,,0.00,WSDL version 420,2013-10-15 02:52:00,
2013-10-14 22:57:00,61.6,50.1,28.08,NNW,338,0.0,0.0,66,0.00,,,0.00,WSDL version 420,2013-10-15 02:57:00,
2013-10-14 23:02:00,61.4,50.0,28.08,NNW,338,0.0,0.0,66,0.00,,,0.00,WSDL version 420,2013-10-15 03:02:00,
2013-10-14 23:07:00,61.3,49.9,28.08,NNW,338,0.0,0.0,66,0.00,,,0.00,WSDL version 420,2013-10-15 03:07:00,
2013-10-14 23:12:00,61.2,50.2,28.08,NNW,338,0.0,0.0,67,0.00,,,0.00,WSDL version 420,2013-10-15 03:12:00,
2013-10-14 23:17:00,61.1,50.1,28.08,ENE,68,0.0,0.0,67,0.00,,,0.00,WSDL version 420,2013-10-15 03:17:00,
2013-10-14 23:22:00,61.0,50.0,28.08,South,188,0.0,0.0,67,0.00,,,0.00,WSDL version 420,2013-10-15 03:22:00,
2013-10-14 23:27:00,60.9,50.0,28.08,WSW,248,0.0,0.0,68,0.00,,,0.00,WSDL version 420,2013-10-15 03:27:00,
2013-10-14 23:32:00,60.8,50.2,28.08,West,278,0.0,0.0,68,0.00,,,0.00,WSDL version 420,2013-10-15 03:32:00,
2013-10-14 23:37:00,60.7,50.1,28.08,WNW,293,0.0,0.0,68,0.00,,,0.00,WSDL version 420,2013-10-15 03:37:00,
2013-10-14 23:42:00,60.6,50.2,28.08,WNW,293,0.0,0.0,69,0.00,,,0.00,WSDL version 420,2013-10-15 03:42:00,
2013-10-14 23:47:00,60.4,50.2,28.08,SE,128,0.0,0.0,69,0.00,,,0.00,WSDL version 420,2013-10-15 03:47:00,
2013-10-14 23:52:00,60.4,50.2,28.08,NW,315,0.0,0.0,69,0.00,,,0.00,WSDL version 420,2013-10-15 03:52:00,
2013-10-14 23:57:00,60.3,50.1,28.08,NNW,338,0.0,0.0,69,0.00,,,0.00,WSDL version 420,2013-10-15 03:57:00,